createdAt,value
2023-03-19T00:00:50.584Z,23.83
2023-03-19T00:03:17.492Z,22.45
2023-03-19T00:05:53.150Z,22.33
2023-03-19T00:08:20.505Z,22.77
2023-03-19T00:10:47.371Z,22.92
2023-03-19T00:13:14.285Z,21.75
2023-03-19T00:15:41.693Z,22.88
2023-03-19T00:18:08.591Z,22.33
2023-03-19T00:20:35.534Z,24.02
2023-03-19T00:23:02.772Z,23.17
2023-03-19T00:25:29.690Z,25.33
2023-03-19T00:27:56.710Z,25.92
2023-03-19T00:30:24.168Z,26.15
2023-03-19T00:32:51.633Z,27.20
2023-03-19T00:35:18.619Z,26.65
2023-03-19T00:37:45.482Z,29.10
2023-03-19T00:40:12.888Z,27.35
2023-03-19T00:42:39.878Z,27.02
2023-03-19T00:45:07.730Z,27.25
2023-03-19T00:47:34.695Z,26.23
2023-03-19T00:50:01.593Z,27.08
2023-03-19T00:52:28.508Z,27.48
2023-03-19T00:54:55.653Z,28.35
2023-03-19T00:57:22.651Z,26.13
2023-03-19T00:59:49.588Z,24.33
2023-03-19T01:02:17.654Z,24.08
2023-03-19T01:04:48.305Z,23.75
2023-03-19T01:07:15.628Z,23.33
2023-03-19T01:09:42.773Z,23.23
2023-03-19T01:12:09.815Z,23.73
2023-03-19T01:14:36.775Z,24.05
2023-03-19T01:17:03.811Z,24.30
2023-03-19T01:19:31.010Z,23.25
2023-03-19T01:21:58.121Z,24.95
2023-03-19T01:24:25.128Z,24.77
2023-03-19T01:26:52.026Z,24.75
2023-03-19T01:29:18.872Z,24.30
2023-03-19T01:31:45.782Z,24.83
2023-03-19T01:34:12.702Z,23.83
2023-03-19T01:36:39.604Z,23.67
2023-03-19T01:39:06.777Z,24.85
2023-03-19T01:41:33.710Z,23.60
2023-03-19T01:44:00.579Z,25.75
2023-03-19T01:46:38.514Z,24.98
2023-03-19T01:49:11.954Z,25.27
2023-03-19T01:51:44.557Z,25.30
2023-03-19T01:54:19.565Z,24.83
2023-03-19T01:56:53.418Z,25.42
2023-03-19T01:59:33.155Z,24.75
2023-03-19T02:02:09.689Z,25.92
2023-03-19T02:04:40.942Z,25.27
2023-03-19T02:07:09.692Z,26.48
2023-03-19T02:09:37.396Z,26.80
2023-03-19T02:12:05.339Z,26.67
2023-03-19T02:14:32.443Z,26.27
2023-03-19T02:16:59.689Z,26.40
2023-03-19T02:19:43.667Z,27.75
2023-03-19T02:22:13.799Z,29.15
2023-03-19T02:25:03.102Z,30.50
2023-03-19T02:27:29.942Z,27.27
2023-03-19T02:29:56.798Z,27.20
2023-03-19T02:32:23.742Z,27.23
2023-03-19T02:34:50.851Z,25.35
2023-03-19T02:37:32.872Z,26.65
2023-03-19T02:40:09.527Z,27.83
2023-03-19T02:42:36.497Z,27.50
2023-03-19T02:45:04.093Z,27.85
2023-03-19T02:47:30.961Z,27.95
2023-03-19T02:49:57.823Z,26.67
2023-03-19T02:52:24.732Z,26.67
2023-03-19T02:54:51.616Z,27.90
2023-03-19T02:57:18.566Z,27.67
2023-03-19T02:59:45.437Z,27.65
2023-03-19T03:02:12.633Z,27.02
2023-03-19T03:04:39.568Z,26.63
2023-03-19T03:07:07.453Z,27.65
2023-03-19T03:09:34.970Z,28.25
2023-03-19T03:12:02.228Z,27.77
2023-03-19T03:14:29.633Z,26.83
2023-03-19T03:16:57.431Z,27.80
2023-03-19T03:19:24.728Z,28.10
2023-03-19T03:21:51.966Z,27.05
2023-03-19T03:24:18.967Z,27.05
2023-03-19T03:26:46.225Z,27.77
2023-03-19T03:29:13.216Z,28.92
2023-03-19T03:31:40.224Z,28.95
2023-03-19T03:34:07.501Z,30.30
2023-03-19T03:36:34.410Z,29.63
2023-03-19T03:39:01.716Z,29.27
2023-03-19T03:41:28.551Z,29.70
2023-03-19T03:43:55.592Z,28.25
2023-03-19T03:46:23.270Z,29.00
2023-03-19T03:48:51.371Z,28.33
2023-03-19T03:51:22.190Z,28.63
2023-03-19T03:53:49.161Z,32.85
2023-03-19T03:56:16.230Z,32.78
2023-03-19T03:58:43.086Z,28.95
2023-03-19T04:01:19.085Z,28.98
2023-03-19T04:03:46.504Z,29.50
2023-03-19T04:06:18.611Z,27.73
2023-03-19T04:08:45.996Z,27.80
2023-03-19T04:11:13.092Z,28.38
2023-03-19T04:13:40.029Z,28.92
2023-03-19T04:16:09.633Z,27.45
2023-03-19T04:18:38.355Z,29.55
2023-03-19T04:21:06.881Z,28.77
2023-03-19T04:23:36.955Z,30.30
2023-03-19T04:26:07.529Z,35.83
2023-03-19T04:28:34.965Z,59.00
2023-03-19T04:31:05.386Z,60.00
2023-03-19T04:33:33.239Z,49.33
2023-03-19T04:36:00.524Z,49.47
2023-03-19T04:38:27.911Z,51.22
2023-03-19T04:40:58.436Z,49.95
2023-03-19T04:43:25.777Z,45.35
2023-03-19T04:45:53.059Z,41.55
2023-03-19T04:48:19.975Z,36.88
2023-03-19T04:50:48.311Z,38.08
2023-03-19T04:53:15.153Z,39.80
2023-03-19T04:55:42.436Z,39.35
2023-03-19T04:58:09.316Z,39.58
2023-03-19T05:00:36.863Z,34.55
2023-03-19T05:03:04.096Z,33.20
2023-03-19T05:05:31.294Z,31.55
2023-03-19T05:07:58.390Z,32.85
2023-03-19T05:10:25.367Z,38.65
2023-03-19T05:12:52.219Z,37.55
2023-03-19T05:15:19.099Z,35.03
2023-03-19T05:17:45.994Z,34.03
2023-03-19T05:20:14.340Z,37.25
2023-03-19T05:22:41.507Z,35.90
2023-03-19T05:25:08.698Z,36.05
2023-03-19T05:27:36.410Z,34.72
2023-03-19T05:30:05.707Z,33.17
2023-03-19T05:32:33.256Z,33.60
2023-03-19T05:35:00.174Z,31.50
2023-03-19T05:37:27.109Z,32.78
2023-03-19T05:39:53.914Z,33.60
2023-03-19T05:42:21.121Z,34.72
2023-03-19T05:44:48.266Z,32.85
2023-03-19T05:47:15.179Z,31.67
2023-03-19T05:49:42.122Z,31.15
2023-03-19T05:52:09.202Z,33.30
2023-03-19T05:54:36.144Z,32.35
2023-03-19T05:57:03.551Z,30.00
2023-03-19T05:59:31.954Z,29.10
2023-03-19T06:01:58.797Z,30.75
2023-03-19T06:04:26.008Z,30.27
2023-03-19T06:06:52.964Z,29.38
2023-03-19T06:09:20.535Z,29.67
2023-03-19T06:11:47.379Z,30.92
2023-03-19T06:14:14.665Z,30.20
2023-03-19T06:16:41.612Z,30.63
2023-03-19T06:19:08.928Z,30.95
2023-03-19T06:21:36.026Z,31.10
2023-03-19T06:24:03.202Z,30.67
2023-03-19T06:26:30.537Z,31.90
2023-03-19T06:28:57.454Z,31.73
2023-03-19T06:31:24.524Z,29.40
2023-03-19T06:33:51.437Z,32.40
2023-03-19T06:36:18.407Z,33.85
2023-03-19T06:38:45.560Z,30.48
2023-03-19T06:41:12.782Z,31.58
2023-03-19T06:43:41.964Z,30.88
2023-03-19T06:46:11.463Z,30.15
2023-03-19T06:48:39.271Z,29.83
2023-03-19T06:51:06.863Z,30.75
2023-03-19T06:53:33.910Z,31.77
2023-03-19T06:56:01.064Z,29.88
2023-03-19T06:58:27.964Z,31.48
2023-03-19T07:00:54.923Z,31.33
2023-03-19T07:03:21.870Z,31.23
2023-03-19T07:05:51.624Z,31.25
2023-03-19T07:08:19.002Z,30.58
2023-03-19T07:10:45.886Z,31.05
2023-03-19T07:13:13.291Z,30.95
2023-03-19T07:15:40.385Z,31.10
2023-03-19T07:18:07.294Z,33.10
2023-03-19T07:20:34.202Z,33.05
2023-03-19T07:23:01.302Z,31.15
2023-03-19T07:25:28.098Z,33.20
2023-03-19T07:27:56.170Z,31.98
2023-03-19T07:30:24.283Z,31.85
2023-03-19T07:32:51.522Z,32.05
2023-03-19T07:35:18.416Z,31.73
2023-03-19T07:37:45.410Z,31.58
2023-03-19T07:40:12.629Z,29.92
2023-03-19T07:42:41.609Z,31.52
2023-03-19T07:45:09.745Z,31.67
2023-03-19T07:47:36.628Z,30.33
2023-03-19T07:50:03.894Z,31.10
2023-03-19T07:52:30.934Z,30.95
2023-03-19T07:54:57.814Z,30.58
2023-03-19T07:57:25.744Z,30.80
2023-03-19T07:59:52.763Z,31.00
2023-03-19T08:02:22.689Z,30.67
2023-03-19T08:04:50.055Z,32.17
2023-03-19T08:07:17.131Z,31.65
2023-03-19T08:09:44.208Z,34.17
2023-03-19T08:12:11.490Z,34.15
2023-03-19T08:14:38.409Z,32.38
2023-03-19T08:17:05.724Z,31.58
2023-03-19T08:19:33.291Z,30.65
2023-03-19T08:22:00.318Z,32.05
2023-03-19T08:24:27.133Z,32.17
2023-03-19T08:26:53.932Z,32.85
2023-03-19T08:29:20.978Z,31.90
2023-03-19T08:31:47.885Z,32.67
2023-03-19T08:34:15.374Z,32.10
2023-03-19T08:36:42.371Z,33.00
2023-03-19T08:39:09.226Z,33.97
2023-03-19T08:41:36.509Z,32.95
2023-03-19T08:44:03.993Z,33.53
2023-03-19T08:46:31.362Z,33.42
2023-03-19T08:48:58.301Z,33.63
2023-03-19T08:51:26.368Z,32.95
2023-03-19T08:53:54.403Z,31.33
2023-03-19T08:56:21.589Z,31.25
2023-03-19T08:58:48.834Z,31.60
2023-03-19T09:01:15.710Z,30.20
2023-03-19T09:03:45.326Z,30.25
2023-03-19T09:06:14.507Z,30.08
2023-03-19T09:08:42.277Z,29.85
2023-03-19T09:11:10.948Z,30.00
2023-03-19T09:13:38.046Z,31.13
2023-03-19T09:16:05.832Z,30.52
2023-03-19T09:18:34.004Z,30.52
2023-03-19T09:21:01.682Z,31.25
2023-03-19T09:23:29.872Z,31.17
2023-03-19T09:25:56.888Z,31.80
2023-03-19T09:28:24.313Z,31.42
2023-03-19T09:30:52.190Z,32.55
2023-03-19T09:33:20.722Z,30.95
2023-03-19T09:35:53.679Z,31.77
2023-03-19T09:38:22.206Z,31.50
2023-03-19T09:41:08.750Z,30.90
2023-03-19T09:44:05.616Z,30.67
2023-03-19T09:47:09.070Z,29.92
2023-03-19T09:49:50.264Z,28.92
2023-03-19T09:52:41.659Z,28.45
2023-03-19T09:55:23.445Z,27.75
2023-03-19T09:57:58.651Z,25.25
2023-03-19T10:00:36.966Z,28.35
2023-03-19T10:03:31.787Z,29.52
2023-03-19T10:06:29.553Z,25.63
2023-03-19T10:09:30.607Z,24.98
2023-03-19T10:12:43.244Z,25.75
2023-03-19T10:15:19.771Z,24.63
2023-03-19T10:17:59.980Z,24.23
2023-03-19T10:21:05.459Z,23.85
2023-03-19T10:23:57.264Z,23.20
2023-03-19T10:26:32.212Z,23.17
2023-03-19T10:29:18.205Z,23.35
2023-03-19T10:32:27.959Z,24.30
2023-03-19T10:34:57.660Z,23.35
2023-03-19T10:37:28.736Z,24.15
2023-03-19T10:40:00.977Z,24.98
2023-03-19T10:42:48.367Z,24.87
2023-03-19T10:45:31.927Z,23.77
2023-03-19T10:48:01.631Z,24.27
2023-03-19T10:50:57.087Z,24.08
2023-03-19T10:53:48.131Z,24.95
2023-03-19T10:56:27.172Z,25.40
2023-03-19T10:59:04.144Z,24.42
2023-03-19T11:01:40.932Z,24.63
2023-03-19T11:04:26.310Z,25.35
2023-03-19T11:07:06.374Z,25.33
2023-03-19T11:09:37.620Z,23.35
2023-03-19T11:12:34.566Z,23.38
2023-03-19T11:15:04.033Z,22.83
2023-03-19T11:17:50.717Z,22.85
2023-03-19T11:20:33.355Z,23.95
2023-03-19T11:23:07.681Z,23.92
2023-03-19T11:25:43.619Z,22.33
2023-03-19T11:28:20.580Z,23.13
2023-03-19T11:31:24.314Z,23.02
2023-03-19T11:34:24.279Z,24.00
2023-03-19T11:37:28.597Z,22.52
2023-03-19T11:40:40.388Z,20.85
2023-03-19T11:43:38.799Z,21.67
2023-03-19T11:46:32.555Z,23.10
2023-03-19T11:49:25.351Z,21.77
2023-03-19T11:52:00.808Z,20.30
2023-03-19T11:54:48.818Z,21.70
2023-03-19T11:57:57.606Z,19.80
2023-03-19T12:00:44.373Z,21.60
2023-03-19T12:03:26.163Z,19.83
2023-03-19T12:06:01.823Z,17.92
2023-03-19T12:08:42.535Z,18.10
2023-03-19T12:11:54.587Z,19.05
2023-03-19T12:14:35.162Z,18.17
2023-03-19T12:17:41.313Z,24.23
2023-03-19T12:20:29.946Z,22.85
2023-03-19T12:23:43.455Z,19.73
2023-03-19T12:26:35.102Z,19.92
2023-03-19T12:29:27.425Z,20.52
2023-03-19T12:32:00.438Z,18.33
2023-03-19T12:37:38.455Z,17.47
2023-03-19T12:40:29.897Z,17.10
2023-03-19T12:43:02.233Z,17.00
2023-03-19T12:45:42.567Z,17.52
2023-03-19T12:48:21.862Z,17.23
2023-03-19T12:50:54.279Z,18.88
2023-03-19T12:54:20.841Z,18.02
2023-03-19T12:56:59.992Z,18.55
2023-03-19T12:59:58.387Z,19.55
2023-03-19T13:02:48.392Z,18.02
2023-03-19T13:05:15.219Z,18.67
2023-03-19T13:08:16.981Z,17.85
2023-03-19T13:10:43.916Z,18.00
2023-03-19T13:13:22.865Z,18.98
2023-03-19T13:15:58.432Z,19.58
2023-03-19T13:18:40.849Z,19.00
2023-03-19T13:21:28.914Z,17.90
2023-03-19T13:24:28.853Z,16.63
2023-03-19T13:27:01.140Z,18.45
2023-03-19T13:29:30.722Z,19.73
2023-03-19T13:32:06.536Z,18.58
2023-03-19T13:34:37.384Z,19.00
2023-03-19T13:37:16.788Z,20.52
2023-03-19T13:39:46.440Z,18.25
2023-03-19T13:42:38.235Z,17.83
2023-03-19T13:45:36.237Z,18.42
2023-03-19T13:48:26.653Z,17.02
2023-03-19T13:51:26.720Z,17.25
2023-03-19T13:54:12.712Z,18.42
2023-03-19T13:57:00.880Z,17.13
2023-03-19T13:59:35.037Z,18.08
2023-03-19T14:02:22.842Z,17.58
2023-03-19T14:05:17.546Z,17.48
2023-03-19T14:07:52.887Z,16.48
2023-03-19T14:10:25.617Z,20.48
2023-03-19T14:13:04.856Z,21.33
2023-03-19T14:15:32.100Z,20.65
2023-03-19T14:18:06.057Z,20.52
2023-03-19T14:21:13.023Z,19.63
2023-03-19T14:23:52.634Z,18.15
2023-03-19T14:26:28.893Z,17.65
2023-03-19T14:29:03.613Z,17.13
2023-03-19T14:31:33.749Z,18.00
2023-03-19T14:34:34.729Z,20.05
2023-03-19T14:37:25.062Z,24.35
2023-03-19T14:40:10.958Z,21.98
2023-03-19T14:42:46.761Z,21.30
2023-03-19T14:45:14.653Z,20.27
2023-03-19T14:48:06.835Z,20.13
2023-03-19T14:50:53.292Z,20.15
2023-03-19T14:53:43.809Z,21.02
2023-03-19T14:56:25.467Z,21.10
2023-03-19T14:59:00.204Z,21.25
2023-03-19T15:01:27.954Z,20.90
2023-03-19T15:04:07.814Z,21.83
2023-03-19T15:06:40.433Z,21.42
2023-03-19T15:09:21.370Z,21.63
2023-03-19T15:12:28.170Z,21.27
2023-03-19T15:15:18.114Z,23.00
2023-03-19T15:17:51.635Z,22.15
2023-03-19T15:20:26.389Z,22.23
2023-03-19T15:23:01.621Z,21.63
2023-03-19T15:25:31.534Z,22.75
2023-03-19T15:28:28.999Z,21.73
2023-03-19T15:31:26.292Z,22.63
2023-03-19T15:33:53.688Z,38.33
2023-03-19T15:36:33.723Z,25.88
2023-03-19T15:39:07.290Z,28.80
2023-03-19T15:41:41.293Z,25.75
2023-03-19T15:44:19.360Z,26.27
2023-03-19T15:46:47.666Z,25.52
2023-03-19T15:49:28.033Z,25.52
2023-03-19T15:52:02.608Z,25.98
2023-03-19T15:54:29.792Z,26.13
2023-03-19T15:56:57.522Z,26.17
2023-03-19T15:59:30.149Z,27.13
2023-03-19T16:02:01.293Z,28.70
2023-03-19T16:04:30.098Z,30.17
2023-03-19T16:06:59.198Z,27.30
2023-03-19T16:09:33.191Z,26.55
2023-03-19T16:12:01.409Z,26.42
2023-03-19T16:14:45.533Z,25.83
2023-03-19T16:17:18.182Z,24.70
2023-03-19T16:19:56.029Z,24.98
2023-03-19T16:22:31.229Z,26.40
2023-03-19T16:24:59.581Z,27.25
2023-03-19T16:27:36.683Z,26.88
2023-03-19T16:30:27.045Z,26.73
2023-03-19T16:33:06.591Z,26.83
2023-03-19T16:35:36.665Z,28.65
2023-03-19T16:38:28.241Z,29.65
2023-03-19T16:41:33.935Z,30.60
2023-03-19T16:44:18.436Z,30.95
2023-03-19T16:46:45.718Z,30.17
2023-03-19T16:49:12.635Z,30.90
2023-03-19T16:51:39.920Z,32.63
2023-03-19T16:54:07.146Z,32.35
2023-03-19T16:56:34.309Z,33.85
2023-03-19T16:59:03.150Z,38.67
2023-03-19T17:01:30.471Z,39.10
2023-03-19T17:03:57.772Z,38.45
2023-03-19T17:06:25.235Z,39.13
2023-03-19T17:08:52.330Z,35.63
2023-03-19T17:11:33.800Z,32.60
2023-03-19T17:14:01.795Z,32.55
2023-03-19T17:16:29.691Z,33.45
2023-03-19T17:18:57.529Z,32.97
2023-03-19T17:21:34.131Z,33.85
2023-03-19T17:24:26.775Z,33.08
2023-03-19T17:26:56.399Z,31.15
2023-03-19T17:29:24.976Z,30.17
2023-03-19T17:31:55.127Z,30.60
2023-03-19T17:34:30.457Z,36.00
2023-03-19T17:37:01.139Z,38.35
2023-03-19T17:39:32.843Z,37.13
2023-03-19T17:41:59.937Z,34.40
2023-03-19T17:44:27.966Z,33.20
2023-03-19T17:46:55.926Z,30.15
2023-03-19T17:49:30.007Z,29.05
2023-03-19T17:51:57.964Z,29.15
2023-03-19T17:54:27.000Z,30.25
2023-03-19T17:56:55.741Z,30.88
2023-03-19T17:59:23.536Z,37.60
2023-03-19T18:01:52.106Z,44.13
2023-03-19T18:04:22.299Z,65.45
2023-03-19T18:06:56.658Z,58.25
2023-03-19T18:09:32.783Z,41.38
2023-03-19T18:11:59.755Z,37.78
2023-03-19T18:14:26.671Z,40.35
2023-03-19T18:16:53.581Z,38.92
2023-03-19T18:19:36.805Z,39.92
2023-03-19T18:22:14.270Z,31.55
2023-03-19T18:24:41.341Z,32.20
2023-03-19T18:27:08.228Z,28.60
2023-03-19T18:29:35.563Z,27.80
2023-03-19T18:32:11.094Z,32.95
2023-03-19T18:34:38.124Z,34.65
2023-03-19T18:37:05.475Z,37.08
2023-03-19T18:39:36.357Z,42.17
2023-03-19T18:42:03.672Z,60.70
2023-03-19T18:44:30.949Z,63.38
2023-03-19T18:46:58.236Z,44.20
2023-03-19T18:49:27.170Z,35.38
2023-03-19T18:52:02.723Z,33.25
2023-03-19T18:54:31.181Z,34.83
2023-03-19T18:57:02.475Z,35.67
2023-03-19T18:59:33.174Z,33.40
2023-03-19T19:02:17.365Z,33.70
2023-03-19T19:04:44.389Z,31.75
2023-03-19T19:07:16.323Z,33.08
2023-03-19T19:09:43.677Z,36.10
2023-03-19T19:12:18.329Z,36.10
2023-03-19T19:14:46.427Z,36.53
2023-03-19T19:17:20.061Z,37.70
2023-03-19T19:19:47.169Z,33.55
2023-03-19T19:22:20.048Z,34.72
2023-03-19T19:24:47.419Z,34.72
2023-03-19T19:27:28.526Z,34.47
2023-03-19T19:29:55.695Z,33.65
2023-03-19T19:32:29.568Z,34.00
2023-03-19T19:34:56.984Z,33.33
2023-03-19T19:37:24.332Z,34.60
2023-03-19T19:39:51.583Z,32.90
2023-03-19T19:42:22.500Z,34.08
2023-03-19T19:44:56.245Z,34.47
2023-03-19T19:47:23.280Z,34.47
2023-03-19T19:49:50.361Z,33.72
2023-03-19T19:52:19.310Z,34.90
2023-03-19T19:54:46.950Z,34.85
2023-03-19T19:57:24.675Z,36.42
2023-03-19T19:59:54.105Z,37.00
2023-03-19T20:02:28.795Z,35.20
2023-03-19T20:04:57.219Z,34.33
2023-03-19T20:07:24.153Z,35.70
2023-03-19T20:09:51.521Z,39.58
2023-03-19T20:12:30.924Z,31.63
2023-03-19T20:14:58.473Z,30.15
2023-03-19T20:17:25.821Z,29.65
2023-03-19T20:19:52.837Z,33.33
2023-03-19T20:22:19.762Z,35.10
2023-03-19T20:24:49.560Z,36.25
2023-03-19T20:27:23.195Z,39.08
2023-03-19T20:29:50.794Z,39.50
2023-03-19T20:32:33.879Z,36.97
2023-03-19T20:35:01.640Z,35.13
2023-03-19T20:37:29.886Z,33.83
2023-03-19T20:39:56.883Z,33.80
2023-03-19T20:42:25.482Z,34.25
2023-03-19T20:44:58.626Z,35.92
2023-03-19T20:47:25.970Z,32.20
2023-03-19T20:49:53.412Z,31.90
2023-03-19T20:52:20.730Z,32.10
2023-03-19T20:54:50.312Z,31.55
2023-03-19T20:57:24.181Z,31.90
2023-03-19T20:59:51.022Z,31.92
2023-03-19T21:02:21.925Z,32.53
2023-03-19T21:04:49.109Z,34.95
2023-03-19T21:07:33.579Z,38.83
2023-03-19T21:10:06.382Z,38.08
2023-03-19T21:12:36.040Z,37.13
2023-03-19T21:15:03.377Z,35.83
2023-03-19T21:17:30.222Z,35.05
2023-03-19T21:19:57.181Z,34.22
2023-03-19T21:22:30.010Z,34.83
2023-03-19T21:25:06.856Z,34.58
2023-03-19T21:27:37.336Z,34.60
2023-03-19T21:30:06.608Z,32.60
2023-03-19T21:32:33.549Z,34.38
2023-03-19T21:35:00.497Z,35.97
2023-03-19T21:37:27.400Z,43.38
2023-03-19T21:39:54.315Z,45.28
2023-03-19T21:42:23.331Z,47.92
2023-03-19T21:44:59.189Z,54.60
2023-03-19T21:47:26.067Z,42.85
2023-03-19T21:49:52.946Z,41.45
2023-03-19T21:52:21.911Z,36.90
2023-03-19T21:54:49.096Z,35.53
2023-03-19T21:57:17.431Z,34.88
2023-03-19T21:59:45.382Z,33.35
2023-03-19T22:02:27.454Z,34.00
2023-03-19T22:04:54.446Z,33.58
2023-03-19T22:07:21.562Z,34.38
2023-03-19T22:09:48.411Z,32.72
2023-03-19T22:12:27.434Z,37.95
2023-03-19T22:14:54.787Z,33.08
2023-03-19T22:17:25.731Z,34.97
2023-03-19T22:19:52.608Z,32.05
2023-03-19T22:22:19.499Z,30.50
2023-03-19T22:24:46.387Z,31.75
2023-03-19T22:27:17.564Z,31.58
2023-03-19T22:29:47.330Z,31.55
2023-03-19T22:32:18.322Z,31.52
2023-03-19T22:34:45.549Z,31.50
2023-03-19T22:37:29.244Z,31.75
2023-03-19T22:39:56.534Z,40.50
2023-03-19T22:42:26.577Z,38.42
2023-03-19T22:44:54.651Z,54.08
2023-03-19T22:47:24.736Z,39.08
2023-03-19T22:49:52.139Z,48.58
2023-03-19T22:52:18.990Z,38.92
2023-03-19T22:54:46.010Z,34.03
2023-03-19T22:57:17.371Z,31.58
2023-03-19T22:59:44.550Z,31.17
2023-03-19T23:02:14.864Z,31.55
2023-03-19T23:04:41.879Z,30.63
2023-03-19T23:07:14.097Z,31.02
2023-03-19T23:09:41.899Z,31.10
2023-03-19T23:14:36.785Z,37.55
2023-03-19T23:17:15.590Z,32.95
2023-03-19T23:19:42.608Z,32.78
2023-03-19T23:22:16.362Z,31.67
2023-03-19T23:24:44.594Z,32.00
2023-03-19T23:27:26.091Z,31.25
2023-03-19T23:29:53.991Z,34.58
2023-03-19T23:32:21.881Z,33.90
2023-03-19T23:34:59.549Z,32.90
2023-03-19T23:37:28.639Z,32.00
2023-03-19T23:39:56.293Z,32.80
2023-03-19T23:42:29.549Z,32.13
2023-03-19T23:45:01.257Z,33.15
2023-03-19T23:47:30.561Z,33.65
2023-03-19T23:49:57.780Z,32.78
2023-03-19T23:52:24.598Z,32.63
2023-03-19T23:54:52.395Z,34.22
2023-03-19T23:57:21.740Z,35.88
2023-03-19T23:59:57.410Z,38.42
